»·PEaware :: N32314 KSBP-KSMX

N32314 :: KSBP-KSMX

FLIGHT INFORMATION

Flight Status: Arrived
Operator: Privately registered:
United States
More flights under this callsign
Pilot: John O. (31453)
Aircraft: CESSNA 172 SKYHAWK
(C172)
More flights by this aircraft type
Origin: KSBP San Luis Co Regl
United States
Destination: KSMX Santa Maria Pub/Capt Hancock
United States
More flights between these airports :: More routes between these airports
Route: DIRECT
File this flight plan on PilotEdge
Remarks:
Altitude:
(Current/Filed)
4,000ft
Speed:
(Current/Filed)
110kts
Departed: 18-Sep-20 09:36 AM
Arrived: 18-Sep-20 12:41 PM
Distance/Time
Traveled:
22nm/3:05
Distance/Time
To Go:
Arrived

Flight Plot

Page will automatically refresh every two minutes.


Map Options




Map Legend


Flown Route
Filed Route
Departure Airport
Arrival Airport
Navaid (VOR, NDB)
Fix

Horizontal Profiles

Position Reports

Time Latitude Longitude Heading Altitude Ground
Speed
18-Sep-20 08:42 0.000408 0.013975 359 3ft 0kts
18-Sep-20 08:43 0.000408 0.013975 359 3ft 0kts
18-Sep-20 08:44 0.000408 0.013975 359 3ft 0kts
18-Sep-20 08:45 0.000408 0.013975 359 3ft 0kts
18-Sep-20 08:46 0.000408 0.013975 359 3ft 0kts
18-Sep-20 08:47 0.000408 0.013975 359 3ft 0kts
18-Sep-20 08:48 0.000408 0.013975 359 3ft 0kts
18-Sep-20 08:49 0.000408 0.013975 359 3ft 0kts
18-Sep-20 08:50 0.000408 0.013975 359 3ft 0kts
18-Sep-20 08:51 0.000408 0.013975 359 3ft 0kts
18-Sep-20 08:53 0.000408 0.013975 359 3ft 0kts
18-Sep-20 08:54 0.000408 0.013975 359 3ft 0kts
18-Sep-20 08:55 0.000408 0.013975 359 3ft 0kts
18-Sep-20 08:56 0.000408 0.013975 359 3ft 0kts
18-Sep-20 08:57 0.000408 0.013975 359 3ft 0kts
18-Sep-20 08:58 0.000408 0.013975 359 3ft 0kts
18-Sep-20 08:59 0.000408 0.013975 359 3ft 0kts
18-Sep-20 09:00 0.000408 0.013975 359 3ft 0kts
18-Sep-20 09:01 0.000408 0.013975 359 3ft 0kts
18-Sep-20 09:02 0.000408 0.013975 359 3ft 0kts
18-Sep-20 09:03 0.000408 0.013975 359 3ft 0kts
18-Sep-20 09:04 0.000408 0.013975 359 3ft 0kts
18-Sep-20 09:05 0.000408 0.013975 359 3ft 0kts
18-Sep-20 09:06 0.000408 0.013975 359 3ft 0kts
18-Sep-20 09:07 0.000408 0.013975 359 3ft 0kts
18-Sep-20 09:08 0.000408 0.013975 359 3ft 0kts
18-Sep-20 09:09 0.000408 0.013975 359 3ft 0kts
18-Sep-20 09:10 0.000408 0.013975 359 3ft 0kts
18-Sep-20 09:10 0.000408 0.013975 359 3ft 0kts
18-Sep-20 09:12 0.000408 0.013975 359 3ft 0kts
18-Sep-20 09:13 0.000408 0.013975 359 3ft 0kts
18-Sep-20 09:13 0.000408 0.013975 359 3ft 0kts
18-Sep-20 09:14 0.000408 0.013975 359 3ft 0kts
18-Sep-20 09:15 0.000408 0.013975 359 3ft 0kts
18-Sep-20 09:16 0.000408 0.013975 359 3ft 0kts
18-Sep-20 09:17 0.000408 0.013975 359 3ft 0kts
18-Sep-20 09:18 0.000408 0.013975 359 3ft 0kts
18-Sep-20 09:19 0.000408 0.013975 359 3ft 0kts
18-Sep-20 09:20 0.000408 0.013975 359 3ft 0kts
18-Sep-20 09:21 0.000408 0.013975 359 3ft 0kts
18-Sep-20 09:22 0.000408 0.013975 359 3ft 0kts
18-Sep-20 09:23 0.000408 0.013975 359 3ft 0kts
18-Sep-20 09:24 0.000408 0.013975 359 3ft 0kts
18-Sep-20 09:25 0.000408 0.013975 359 3ft 0kts
18-Sep-20 09:26 0.000408 0.013975 359 3ft 0kts
18-Sep-20 09:27 41.530525 -93.656647 43 930ft 0kts
18-Sep-20 09:28 41.530525 -93.656647 43 947ft 0kts
18-Sep-20 09:29 41.530525 -93.656647 43 947ft 0kts
18-Sep-20 09:30 41.530525 -93.656647 43 947ft 0kts
18-Sep-20 09:31 41.530525 -93.656647 43 947ft 0kts
18-Sep-20 09:32 41.530377 -93.658973 255 944ft 11kts
18-Sep-20 09:33 41.530288 -93.662096 236 940ft 12kts
18-Sep-20 09:34 41.527199 -93.667895 239 933ft 20kts
18-Sep-20 09:35 41.529209 -93.666524 53 930ft 49kts
18-Sep-20 09:36 41.546001 -93.647622 17 1349ft 99kts
18-Sep-20 09:37 41.573114 -93.637351 358 1942ft 103kts
18-Sep-20 09:38 41.599847 -93.645769 6 2498ft 103kts
18-Sep-20 09:39 41.629123 -93.636629 3 2907ft 110kts
18-Sep-20 09:40 41.660590 -93.638612 339 2829ft 131kts
18-Sep-20 09:41 41.691841 -93.651487 256 1350ft 102kts
18-Sep-20 09:42 41.671853 -93.654265 90 1399ft 107kts
18-Sep-20 09:44 0.000408 0.013975 359 3ft 0kts
18-Sep-20 09:44 0.000408 0.013975 359 3ft 0kts
18-Sep-20 09:45 0.000408 0.013975 359 3ft 0kts
18-Sep-20 09:46 0.000408 0.013975 359 3ft 0kts
18-Sep-20 09:48 43.906147 -114.792309 335 7237ft 0kts
18-Sep-20 09:49 43.918284 -114.799528 338 7228ft 91kts
18-Sep-20 09:50 43.931738 -114.824364 261 7733ft 85kts
18-Sep-20 09:51 43.920858 -114.852671 234 8215ft 84kts
18-Sep-20 09:52 43.904388 -114.877231 236 8613ft 89kts
18-Sep-20 09:53 43.901329 -114.913543 274 8829ft 105kts
18-Sep-20 09:54 43.908609 -114.950255 311 9227ft 99kts
18-Sep-20 09:55 43.929765 -114.974408 337 9536ft 102kts
18-Sep-20 09:56 43.955633 -114.976096 51 9708ft 111kts
18-Sep-20 09:57 43.972570 -114.939333 65 9816ft 120kts
18-Sep-20 09:58 43.981764 -114.896536 42 9904ft 119kts
18-Sep-20 09:59 44.009962 -114.871391 29 9070ft 129kts
18-Sep-20 10:00 44.046269 -114.859615 8 8412ft 137kts
18-Sep-20 10:01 44.082163 -114.861170 353 8176ft 130kts
18-Sep-20 10:02 44.113825 -114.877932 335 8114ft 127kts
18-Sep-20 10:03 44.140830 -114.905312 338 8074ft 117kts
18-Sep-20 10:04 44.172588 -114.922558 339 6917ft 118kts
18-Sep-20 10:05 44.198304 -114.936576 4 6557ft 92kts
18-Sep-20 10:06 44.210161 -114.934102 9 6407ft 0kts
18-Sep-20 10:07 44.210161 -114.934102 9 6407ft 0kts
18-Sep-20 10:08 44.210161 -114.934102 9 6407ft 0kts
18-Sep-20 10:09 44.210161 -114.934102 9 6407ft 0kts
18-Sep-20 10:10 44.210161 -114.934102 9 6407ft 0kts
18-Sep-20 10:11 44.210161 -114.934102 9 6407ft 0kts
18-Sep-20 10:12 44.210161 -114.934102 9 6407ft 0kts
18-Sep-20 10:13 44.210161 -114.934102 9 6407ft 0kts
18-Sep-20 10:14 44.210161 -114.934102 9 6407ft 0kts
18-Sep-20 10:15 44.210161 -114.934102 9 6407ft 0kts
18-Sep-20 10:16 44.210161 -114.934102 9 6407ft 0kts
18-Sep-20 10:17 44.210161 -114.934102 9 6407ft 0kts
18-Sep-20 10:18 44.210161 -114.934102 9 6407ft 0kts
18-Sep-20 10:19 44.210161 -114.934102 9 6407ft 0kts
18-Sep-20 10:20 44.210161 -114.934102 9 6407ft 0kts
18-Sep-20 10:21 44.210161 -114.934102 9 6407ft 0kts
18-Sep-20 10:22 44.210161 -114.934102 9 6407ft 0kts
18-Sep-20 10:23 44.210161 -114.934102 9 6407ft 0kts
18-Sep-20 10:24 44.210161 -114.934102 9 6407ft 0kts
18-Sep-20 10:25 44.210161 -114.934102 9 6407ft 0kts
18-Sep-20 10:26 44.210161 -114.934102 9 6407ft 0kts
18-Sep-20 10:27 44.210161 -114.934102 9 6407ft 0kts
18-Sep-20 10:28 44.210161 -114.934102 9 6407ft 0kts
18-Sep-20 10:29 44.210161 -114.934102 9 6407ft 0kts
18-Sep-20 10:30 44.210161 -114.934102 9 6407ft 0kts
18-Sep-20 10:31 44.210161 -114.934102 9 6407ft 0kts
18-Sep-20 10:32 44.210161 -114.934102 9 6407ft 0kts
18-Sep-20 10:33 44.210161 -114.934102 9 6407ft 0kts
18-Sep-20 10:34 44.210161 -114.934102 9 6407ft 0kts
18-Sep-20 10:35 44.210161 -114.934102 9 6407ft 0kts
18-Sep-20 10:36 44.210161 -114.934102 9 6407ft 0kts
18-Sep-20 10:37 44.210161 -114.934102 9 6407ft 0kts
18-Sep-20 10:38 44.210161 -114.934102 9 6407ft 0kts
18-Sep-20 10:39 44.210161 -114.934102 9 6407ft 0kts
18-Sep-20 10:40 44.210161 -114.934102 9 6407ft 0kts
18-Sep-20 10:41 44.210161 -114.934102 9 6407ft 0kts
18-Sep-20 10:42 44.210161 -114.934101 9 6407ft 0kts
18-Sep-20 10:43 44.210161 -114.934101 9 6407ft 0kts
18-Sep-20 10:44 44.210161 -114.934101 9 6407ft 0kts
18-Sep-20 10:45 44.210161 -114.934101 9 6407ft 0kts
18-Sep-20 10:46 44.210161 -114.934101 9 6407ft 0kts
18-Sep-20 10:48 44.210161 -114.934101 9 6407ft 0kts
18-Sep-20 10:49 44.210161 -114.934101 9 6407ft 0kts
18-Sep-20 10:50 44.210161 -114.934101 9 6407ft 0kts
18-Sep-20 10:51 44.210161 -114.934101 9 6407ft 0kts
18-Sep-20 10:52 44.210161 -114.934101 9 6407ft 0kts
18-Sep-20 10:53 44.210161 -114.934101 9 6407ft 0kts
18-Sep-20 10:54 44.210161 -114.934101 9 6407ft 0kts
18-Sep-20 10:55 44.210161 -114.934101 9 6407ft 0kts
18-Sep-20 10:56 44.210161 -114.934101 9 6407ft 0kts
18-Sep-20 10:57 44.210161 -114.934101 8 6407ft 0kts
18-Sep-20 10:58 44.210161 -114.934101 8 6407ft 0kts
18-Sep-20 10:59 44.210161 -114.934101 8 6407ft 0kts
18-Sep-20 11:00 44.210161 -114.934101 8 6407ft 0kts
18-Sep-20 11:01 44.210161 -114.934101 8 6407ft 0kts
18-Sep-20 11:01 44.210161 -114.934101 8 6407ft 0kts
18-Sep-20 11:03 44.210161 -114.934101 8 6407ft 0kts
18-Sep-20 11:04 44.210161 -114.934101 8 6407ft 0kts
18-Sep-20 11:05 44.210161 -114.934101 8 6407ft 0kts
18-Sep-20 11:05 44.210161 -114.934101 8 6407ft 0kts
18-Sep-20 11:07 44.210161 -114.934101 8 6407ft 0kts
18-Sep-20 11:08 44.210161 -114.934101 8 6407ft 0kts
18-Sep-20 11:08 44.210161 -114.934101 8 6407ft 0kts
18-Sep-20 11:09 44.210161 -114.934101 8 6407ft 0kts
18-Sep-20 11:10 44.210161 -114.934101 8 6407ft 0kts
18-Sep-20 11:11 44.210161 -114.934101 8 6407ft 0kts
18-Sep-20 11:12 44.210161 -114.934101 8 6407ft 0kts
18-Sep-20 11:13 44.210161 -114.934101 8 6407ft 0kts
18-Sep-20 11:14 44.210161 -114.934101 8 6407ft 0kts
18-Sep-20 11:15 44.210161 -114.934101 8 6407ft 0kts
18-Sep-20 11:16 44.210161 -114.934101 8 6407ft 0kts
18-Sep-20 11:17 44.210161 -114.934101 8 6407ft 0kts
18-Sep-20 11:18 44.210161 -114.934101 8 6407ft 0kts
18-Sep-20 11:19 44.210161 -114.934101 8 6407ft 0kts
18-Sep-20 11:20 44.210161 -114.934101 8 6407ft 0kts
18-Sep-20 11:21 44.210161 -114.934101 8 6407ft 0kts
18-Sep-20 11:22 44.210161 -114.934101 8 6407ft 0kts
18-Sep-20 11:23 44.210161 -114.934101 8 6407ft 0kts
18-Sep-20 11:24 44.210161 -114.934101 8 6407ft 0kts
18-Sep-20 11:25 44.210161 -114.934101 8 6407ft 0kts
18-Sep-20 11:26 44.210161 -114.934101 8 6407ft 0kts
18-Sep-20 11:27 44.210161 -114.934101 8 6407ft 0kts
18-Sep-20 11:28 44.210161 -114.934101 8 6407ft 0kts
18-Sep-20 11:29 44.210161 -114.934101 8 6407ft 0kts
18-Sep-20 11:30 44.210161 -114.934101 8 6407ft 0kts
18-Sep-20 11:31 44.210161 -114.934101 8 6407ft 0kts
18-Sep-20 11:32 44.210161 -114.934101 8 6407ft 0kts
18-Sep-20 11:33 44.210161 -114.934101 8 6407ft 0kts
18-Sep-20 11:34 44.210161 -114.934101 8 6407ft 0kts
18-Sep-20 11:35 44.210161 -114.934101 8 6407ft 0kts
18-Sep-20 11:36 44.210161 -114.934101 8 6407ft 0kts
18-Sep-20 11:37 44.210161 -114.934101 8 6407ft 0kts
18-Sep-20 11:38 44.210161 -114.934101 8 6407ft 0kts
18-Sep-20 11:39 44.210161 -114.934101 8 6407ft 0kts
18-Sep-20 11:40 44.210161 -114.934101 8 6407ft 0kts
18-Sep-20 11:41 44.210161 -114.934101 8 6407ft 0kts
18-Sep-20 11:42 44.210161 -114.934101 8 6407ft 0kts
18-Sep-20 11:43 44.210161 -114.934101 8 6407ft 0kts
18-Sep-20 11:44 44.210161 -114.934101 8 6407ft 0kts
18-Sep-20 11:45 44.210161 -114.934101 8 6407ft 0kts
18-Sep-20 11:46 44.210161 -114.934101 8 6407ft 0kts
18-Sep-20 11:47 44.210161 -114.934101 8 6407ft 0kts
18-Sep-20 11:48 44.210161 -114.934101 8 6407ft 0kts
18-Sep-20 11:49 44.210161 -114.934101 8 6407ft 0kts
18-Sep-20 11:50 44.210161 -114.934101 8 6407ft 0kts
18-Sep-20 11:51 44.210161 -114.934101 8 6407ft 0kts
18-Sep-20 11:52 44.210161 -114.934101 8 6407ft 0kts
18-Sep-20 11:53 44.210161 -114.934101 8 6407ft 0kts
18-Sep-20 11:54 44.210161 -114.934101 8 6407ft 0kts
18-Sep-20 11:55 44.210161 -114.934101 8 6407ft 0kts
18-Sep-20 11:56 44.210161 -114.934101 8 6407ft 0kts
18-Sep-20 11:57 44.210161 -114.934101 8 6407ft 0kts
18-Sep-20 11:58 44.210161 -114.934101 8 6407ft 0kts
18-Sep-20 11:59 44.210161 -114.934101 8 6407ft 0kts
18-Sep-20 12:00 44.210161 -114.934101 8 6407ft 0kts
18-Sep-20 12:01 44.210161 -114.934101 8 6407ft 0kts
18-Sep-20 12:02 44.210161 -114.934101 8 6407ft 0kts
18-Sep-20 12:03 44.210161 -114.934101 8 6407ft 0kts
18-Sep-20 12:04 44.210161 -114.934101 8 6407ft 0kts
18-Sep-20 12:05 44.210161 -114.934101 8 6407ft 0kts
18-Sep-20 12:06 44.210161 -114.934101 8 6407ft 0kts
18-Sep-20 12:07 44.210161 -114.934101 8 6407ft 0kts
18-Sep-20 12:08 44.210161 -114.934101 8 6407ft 0kts
18-Sep-20 12:09 44.210161 -114.934101 8 6407ft 0kts
18-Sep-20 12:10 44.210161 -114.934101 8 6407ft 0kts
18-Sep-20 12:11 44.210161 -114.934101 8 6407ft 0kts
18-Sep-20 12:12 44.210161 -114.934101 8 6407ft 0kts
18-Sep-20 12:13 44.210161 -114.934101 8 6407ft 0kts
18-Sep-20 12:14 44.210161 -114.934101 8 6407ft 0kts
18-Sep-20 12:15 44.210161 -114.934101 8 6407ft 0kts
18-Sep-20 12:16 44.210161 -114.934101 8 6407ft 0kts
18-Sep-20 12:17 44.210161 -114.934101 8 6407ft 0kts
18-Sep-20 12:18 44.210161 -114.934101 8 6407ft 0kts
18-Sep-20 12:19 44.210161 -114.934101 8 6407ft 0kts
18-Sep-20 12:20 44.210161 -114.934101 8 6407ft 0kts
18-Sep-20 12:21 44.210161 -114.934101 8 6407ft 0kts
18-Sep-20 12:22 44.210161 -114.934101 8 6407ft 0kts
18-Sep-20 12:23 44.210161 -114.934101 8 6407ft 0kts
18-Sep-20 12:24 44.210161 -114.934101 8 6407ft 0kts
18-Sep-20 12:25 44.210161 -114.934101 8 6407ft 0kts
18-Sep-20 12:26 44.210161 -114.934101 8 6407ft 0kts
18-Sep-20 12:27 44.210161 -114.934101 8 6407ft 0kts
18-Sep-20 12:28 44.210161 -114.934101 8 6407ft 0kts
18-Sep-20 12:29 44.210161 -114.934101 8 6407ft 0kts
18-Sep-20 12:30 44.210161 -114.934101 8 6407ft 0kts
18-Sep-20 12:31 44.210161 -114.934101 8 6407ft 0kts
18-Sep-20 12:32 44.210161 -114.934101 8 6407ft 0kts
18-Sep-20 12:33 44.210161 -114.934101 8 6407ft 0kts
18-Sep-20 12:34 44.210161 -114.934101 8 6407ft 0kts
18-Sep-20 12:35 44.211447 -114.933636 13 6407ft 36kts
18-Sep-20 12:36 44.215150 -114.944804 189 6363ft 72kts
18-Sep-20 12:37 0.000408 0.013975 359 3ft 0kts
18-Sep-20 12:38 0.000408 0.013975 359 3ft 0kts
18-Sep-20 12:40 0.000408 0.013975 359 3ft 0kts
18-Sep-20 12:41 34.899042 -120.448622 40 228ft 0kts
18-Sep-20 12:42 34.899042 -120.448622 40 249ft 0kts
18-Sep-20 12:43 34.899042 -120.448622 40 249ft 0kts
18-Sep-20 12:44 34.899042 -120.448622 40 249ft 0kts
18-Sep-20 12:45 34.899042 -120.448622 40 249ft 0kts
18-Sep-20 12:46 34.899042 -120.448622 40 249ft 0kts
18-Sep-20 12:47 34.899042 -120.448622 40 249ft 0kts
18-Sep-20 12:48 34.899042 -120.448622 40 249ft 0kts
18-Sep-20 12:49 34.899042 -120.448622 40 249ft 0kts
18-Sep-20 12:50 34.899042 -120.448622 40 249ft 0kts
18-Sep-20 12:51 34.899042 -120.448622 40 249ft 0kts
18-Sep-20 12:52 34.899042 -120.448622 40 249ft 0kts
18-Sep-20 12:53 34.899042 -120.448622 40 249ft 0kts
18-Sep-20 12:54 34.899042 -120.448622 40 249ft 0kts
18-Sep-20 12:55 34.899042 -120.448622 40 249ft 0kts

Navigation Log

Ident Type
Flight plan parsing failed, navigation log unavailable